If you wish to contribute or participate in the discussions about articles you are invited to join SKYbrary as a registered user

 Actions

Savannakhet Airport

From SKYbrary Wiki

VLSK
Airport
ICAO: VLSK – IATA: ZVK
Summary
Name Savannakhet Airport
Region Asia and Pacific
Territory Laos LA.gif
Location , Khoueng Savannakhet
Serving Savannakhet
Elevation 155.143 m
509 ft
509 ft155.143 m
Type medium airport
Coordinates 16° 33' 23.74" N, 104° 45' 34.31" E
Runways
Designator Length Width Surface ROPS
4/22 1633 m5,357.612 ft
38 m124.672 ft
CON /


METAR
Observation VLSK 200700Z 22004KT 6000 FEW020 37/23 Q1007 NOSIG
Station Savannakhet
Date/Time 20 May 2019 07:00:00
Wind direction 220°
Wind speed 04 kts
Lowest cloud amount few clouds
Temperature 37°C
Dew point 23°C
Humidity 44%
QNH 1007 hPa
Weather condition n/a